KMPV/MPV METAR and TAF weather

Enter ICAO airport designator
Station Type Date Time Source
KMPV METAR 2022/05/24 11:51 UTC NOAA

KMPV 241151Z AUTO 00000KT 10SM CLR 08/04 A3041 RMK AO2 SLP302 T00830044 10083 20033 53006


Station Type Date Time Source
KMPV Decoded METAR 2022/05/24 11:51 UTC NOAA

KNAPP STATE AIRPORT, VT, United States (KMPV) 44-12N 072-34W 343M
May 24, 2022 - 07:51 AM EDT / 2022.05.24 1151 UTC
Wind: Calm:0
Visibility: 10 mile(s):0
Sky conditions: clear
Temperature: 46.9 F (8.3 C)
Dew Point: 39.9 F (4.4 C)
Relative Humidity: 76%
Pressure (altimeter): 30.41 in. Hg (1029 hPa)
Pressure tendency: 0.02 inches (0.6 hPa) higher than three hours ago
ob: KMPV 241151Z AUTO 00000KT 10SM CLR 08/04 A3041 RMK AO2 SLP302 T00830044 10083 20033 53006
cycle: 12

Station Type Date Time Source
KMPV TAF 2022/05/24 12:27 UTC NOAA

TAF KMPV 241124Z 2412/2512 VRB04KT P6SM FEW180
FM250000 00000KT P6SM BKN150

Example: see airport list